Time;durP1;ratioP1;P1;durP2;ratioP2;P2;SDS_P1;SDS_P2;PMS_P1;PMS_P2;Temp;Humidity;BMP_temperature;BMP_pressure;BME280_temperature;BME280_humidity;BME280_pressure;Samples;Min_cycle;Max_cycle;Signal;HPM_P1;HPM_P2
2023/03/29 00:00:28;;;;;;;;;;;19.00;52.80;;;;;;6294474;28;19908;-67
2023/03/29 00:03:29;;;;;;;;;;;19.00;52.70;;;;;;6294278;28;19935;-67
2023/03/29 00:06:31;;;;;;;;;;;19.00;52.80;;;;;;6294398;28;19931;-67
2023/03/29 00:09:32;;;;;;;;;;;19.00;52.70;;;;;;6294400;28;19962;-67
2023/03/29 00:12:33;;;;;;;;;;;19.00;52.70;;;;;;6294253;28;19908;-67
2023/03/29 00:15:33;;;;;;;;;;;19.00;52.80;;;;;;6294085;28;19915;-67
2023/03/29 00:18:34;;;;;;;;;;;19.00;52.80;;;;;;6294433;28;20089;-67
2023/03/29 00:21:35;;;;;;;;;;;19.00;52.80;;;;;;6276458;28;19908;-68
2023/03/29 00:24:35;;;;;;;;;;;19.00;52.70;;;;;;6294013;28;20426;-67
2023/03/29 00:27:36;;;;;;;;;;;19.00;52.80;;;;;;6294039;28;19912;-67
2023/03/29 00:30:37;;;;;;;;;;;19.00;52.80;;;;;;6276196;28;19912;-68
2023/03/29 00:33:39;;;;;;;;;;;19.00;52.80;;;;;;6275850;28;19915;-67
2023/03/29 00:36:40;;;;;;;;;;;19.00;52.80;;;;;;6294120;28;19913;-67
2023/03/29 00:39:41;;;;;;;;;;;19.00;52.80;;;;;;6294100;28;20409;-68
2023/03/29 00:42:45;;;;;;;;;;;19.00;52.80;;;;;;6269460;28;19909;-67
2023/03/29 00:45:45;;;;;;;;;;;19.00;52.80;;;;;;6255028;28;20335;-67
2023/03/29 00:48:46;;;;;;;;;;;19.00;52.80;;;;;;6255914;28;19967;-67
2023/03/29 00:51:47;;;;;;;;;;;19.00;52.80;;;;;;6273383;28;19940;-68
2023/03/29 00:54:49;;;;;;;;;;;19.00;52.80;;;;;;6255430;28;20406;-67
2023/03/29 00:57:51;;;;;;;;;;;19.00;52.80;;;;;;6273283;28;19913;-67
2023/03/29 01:00:56;;;;;;;;;;;19.00;52.80;;;;;;6273241;28;19909;-68
2023/03/29 01:04:02;;;;;;;;;;;19.00;52.80;;;;;;6272959;28;19912;-67
2023/03/29 01:07:02;;;;;;;;;;;19.00;52.80;;;;;;6272845;28;19940;-67
2023/03/29 01:10:08;;;;;;;;;;;19.00;52.80;;;;;;6273100;28;19915;-68
2023/03/29 01:13:26;;;;;;;;;;;19.00;52.80;;;;;;6272728;28;19909;-68
2023/03/29 01:16:27;;;;;;;;;;;19.00;52.90;;;;;;6272717;28;19917;-67
2023/03/29 01:19:30;;;;;;;;;;;19.00;52.80;;;;;;6272772;28;19952;-67
2023/03/29 01:22:38;;;;;;;;;;;19.00;52.80;;;;;;6272763;28;19916;-67
2023/03/29 01:25:57;;;;;;;;;;;19.00;52.80;;;;;;6272564;28;20012;-67
2023/03/29 01:29:00;;;;;;;;;;;19.00;52.80;;;;;;6272579;28;19914;-67
2023/03/29 01:32:08;;;;;;;;;;;19.00;52.70;;;;;;6272463;28;19916;-67
2023/03/29 01:35:15;;;;;;;;;;;19.00;52.80;;;;;;6272336;28;19916;-67
2023/03/29 01:38:15;;;;;;;;;;;19.00;52.70;;;;;;6254306;28;19919;-67
2023/03/29 01:41:16;;;;;;;;;;;19.00;52.80;;;;;;6272358;28;19913;-67
2023/03/29 01:44:17;;;;;;;;;;;19.00;52.80;;;;;;6272142;28;19955;-68
2023/03/29 01:47:32;;;;;;;;;;;19.00;52.80;;;;;;6283375;28;19927;-67
2023/03/29 01:50:33;;;;;;;;;;;19.00;52.80;;;;;;6296812;28;19957;-67
2023/03/29 01:53:34;;;;;;;;;;;19.00;52.80;;;;;;6296898;28;19944;-67
2023/03/29 01:56:37;;;;;;;;;;;19.00;52.80;;;;;;6296417;28;19912;-67
2023/03/29 01:59:41;;;;;;;;;;;19.00;52.80;;;;;;6296730;28;19912;-67
2023/03/29 02:02:44;;;;;;;;;;;19.00;52.80;;;;;;6296679;28;20394;-67
2023/03/29 02:05:44;;;;;;;;;;;19.00;52.80;;;;;;6296355;28;20385;-68
2023/03/29 02:08:46;;;;;;;;;;;19.00;52.70;;;;;;6296407;28;19909;-67
2023/03/29 02:11:48;;;;;;;;;;;19.00;52.70;;;;;;6296447;28;20022;-68
2023/03/29 02:14:49;;;;;;;;;;;19.00;52.80;;;;;;6296266;28;19915;-67
2023/03/29 02:17:50;;;;;;;;;;;19.00;52.80;;;;;;6296123;28;19912;-67
2023/03/29 02:20:51;;;;;;;;;;;19.00;52.80;;;;;;6278109;28;19955;-67
2023/03/29 02:23:54;;;;;;;;;;;19.00;52.80;;;;;;6296088;28;20639;-68
2023/03/29 02:26:54;;;;;;;;;;;19.00;52.70;;;;;;6295884;28;19909;-67
2023/03/29 02:29:55;;;;;;;;;;;19.00;52.70;;;;;;6295832;28;20646;-67
2023/03/29 02:33:00;;;;;;;;;;;19.00;52.60;;;;;;6296054;28;19908;-67
2023/03/29 02:36:09;;;;;;;;;;;19.00;52.80;;;;;;6277779;28;19912;-67
2023/03/29 02:39:12;;;;;;;;;;;19.00;52.80;;;;;;6295695;28;20325;-67
2023/03/29 02:42:15;;;;;;;;;;;19.00;52.70;;;;;;6277636;28;19999;-67
2023/03/29 02:45:17;;;;;;;;;;;19.00;52.80;;;;;;6295640;28;20474;-68
2023/03/29 02:48:19;;;;;;;;;;;19.00;52.70;;;;;;6294835;28;19943;-67
2023/03/29 02:51:27;;;;;;;;;;;19.00;52.70;;;;;;6295400;28;20433;-68
2023/03/29 02:54:30;;;;;;;;;;;19.00;52.70;;;;;;6295292;28;20012;-67
2023/03/29 02:57:31;;;;;;;;;;;19.00;52.70;;;;;;6277068;28;19970;-67
2023/03/29 03:00:32;;;;;;;;;;;19.00;52.70;;;;;;6295123;28;19912;-67
2023/03/29 03:03:34;;;;;;;;;;;19.00;52.60;;;;;;6295165;28;19909;-67
2023/03/29 03:06:36;;;;;;;;;;;19.00;52.60;;;;;;6294594;28;19909;-67
2023/03/29 03:09:37;;;;;;;;;;;19.00;52.60;;;;;;6294868;28;19919;-68
2023/03/29 03:12:37;;;;;;;;;;;19.00;52.60;;;;;;6276978;28;19948;-67
2023/03/29 03:15:41;;;;;;;;;;;19.00;52.70;;;;;;6294763;28;19959;-67
2023/03/29 03:18:42;;;;;;;;;;;19.00;52.60;;;;;;6294841;28;19909;-67
2023/03/29 03:21:44;;;;;;;;;;;19.00;52.60;;;;;;6277100;28;19912;-67
2023/03/29 03:24:45;;;;;;;;;;;19.00;52.50;;;;;;6295123;28;19943;-67
2023/03/29 03:27:46;;;;;;;;;;;19.00;52.50;;;;;;6294570;28;19912;-67
2023/03/29 03:30:48;;;;;;;;;;;19.00;52.60;;;;;;6294920;28;19917;-67
2023/03/29 03:33:49;;;;;;;;;;;19.00;52.70;;;;;;6294628;28;20403;-67
2023/03/29 03:36:49;;;;;;;;;;;19.00;52.60;;;;;;6294681;28;19948;-68
2023/03/29 03:39:50;;;;;;;;;;;19.00;52.50;;;;;;6294530;28;19915;-67
2023/03/29 03:42:51;;;;;;;;;;;19.00;52.50;;;;;;6294771;28;20384;-67
2023/03/29 03:45:52;;;;;;;;;;;19.00;52.60;;;;;;6294367;28;19916;-67
2023/03/29 03:48:52;;;;;;;;;;;19.00;52.60;;;;;;6294316;28;19916;-68
2023/03/29 03:51:53;;;;;;;;;;;19.00;52.60;;;;;;6294074;28;19961;-68
2023/03/29 03:54:54;;;;;;;;;;;19.00;53.20;;;;;;6294774;28;19944;-67
2023/03/29 03:57:55;;;;;;;;;;;19.00;52.50;;;;;;6276270;28;20405;-67
2023/03/29 04:00:55;;;;;;;;;;;18.90;52.50;;;;;;6294570;28;19909;-67
2023/03/29 04:03:56;;;;;;;;;;;19.00;52.60;;;;;;6276138;28;19909;-67
2023/03/29 04:07:02;;;;;;;;;;;19.00;52.50;;;;;;6294220;28;19912;-67
2023/03/29 04:10:05;;;;;;;;;;;19.00;52.60;;;;;;6294068;28;19916;-68
2023/03/29 04:13:05;;;;;;;;;;;18.90;52.50;;;;;;6294025;28;20286;-67
2023/03/29 04:16:06;;;;;;;;;;;19.00;52.40;;;;;;6294162;28;19920;-67
2023/03/29 04:19:07;;;;;;;;;;;18.90;52.40;;;;;;6295816;28;20327;-67
2023/03/29 04:22:08;;;;;;;;;;;19.00;52.50;;;;;;6298672;28;19919;-67
2023/03/29 04:25:10;;;;;;;;;;;19.00;52.50;;;;;;6298674;28;20363;-67
2023/03/29 04:28:11;;;;;;;;;;;19.00;52.10;;;;;;6298591;28;19908;-67
2023/03/29 04:31:13;;;;;;;;;;;19.00;52.40;;;;;;6298309;28;20310;-67
2023/03/29 04:34:13;;;;;;;;;;;19.00;52.30;;;;;;6280509;28;19908;-67
2023/03/29 04:37:15;;;;;;;;;;;19.00;52.30;;;;;;6297859;28;19919;-68
2023/03/29 04:40:18;;;;;;;;;;;19.00;52.30;;;;;;6269438;28;19909;-68
2023/03/29 04:43:19;;;;;;;;;;;19.00;52.00;;;;;;6272638;28;19955;-68
2023/03/29 04:46:19;;;;;;;;;;;19.00;52.50;;;;;;6272555;28;19929;-68
2023/03/29 04:49:20;;;;;;;;;;;19.00;52.30;;;;;;6254560;28;19963;-68
2023/03/29 04:52:20;;;;;;;;;;;19.00;52.50;;;;;;6272401;28;20015;-68
2023/03/29 04:55:21;;;;;;;;;;;19.00;52.30;;;;;;6241216;28;20003;-68
2023/03/29 04:58:22;;;;;;;;;;;19.00;52.30;;;;;;6259833;28;19924;-68
2023/03/29 05:01:22;;;;;;;;;;;19.00;52.10;;;;;;6291123;28;19909;-68
2023/03/29 05:04:23;;;;;;;;;;;19.00;52.20;;;;;;6275167;28;19932;-69
2023/03/29 05:07:24;;;;;;;;;;;19.00;52.20;;;;;;6272588;28;20363;-69
2023/03/29 05:10:24;;;;;;;;;;;19.00;52.20;;;;;;6254312;28;20027;-69
2023/03/29 05:13:25;;;;;;;;;;;19.00;52.30;;;;;;6271652;28;19913;-68
2023/03/29 05:16:28;;;;;;;;;;;19.00;52.30;;;;;;6271815;28;19971;-68
2023/03/29 05:19:29;;;;;;;;;;;19.00;52.30;;;;;;6268635;28;19913;-68
2023/03/29 05:22:31;;;;;;;;;;;19.00;53.00;;;;;;6247236;28;19963;-68
2023/03/29 05:25:32;;;;;;;;;;;19.00;52.40;;;;;;6257801;28;19970;-68
2023/03/29 05:28:33;;;;;;;;;;;19.00;52.40;;;;;;6254028;28;19908;-68
2023/03/29 05:31:34;;;;;;;;;;;19.00;52.40;;;;;;6252518;28;20393;-68
2023/03/29 05:34:35;;;;;;;;;;;19.00;52.40;;;;;;6247989;28;19910;-68
2023/03/29 05:37:36;;;;;;;;;;;19.00;52.40;;;;;;6277393;28;19919;-68
2023/03/29 05:40:36;;;;;;;;;;;19.00;52.40;;;;;;6287148;28;20084;-68
2023/03/29 05:43:37;;;;;;;;;;;19.00;52.40;;;;;;6259946;28;19933;-69
2023/03/29 05:46:38;;;;;;;;;;;19.00;52.50;;;;;;6263866;28;19927;-68
2023/03/29 05:49:38;;;;;;;;;;;19.00;52.40;;;;;;6271439;28;19958;-68
2023/03/29 05:52:39;;;;;;;;;;;19.00;52.50;;;;;;6271362;28;19909;-68
2023/03/29 05:55:41;;;;;;;;;;;19.00;52.40;;;;;;6271034;28;19916;-68
2023/03/29 05:58:42;;;;;;;;;;;19.00;52.50;;;;;;6271750;28;20284;-68
2023/03/29 06:01:45;;;;;;;;;;;19.00;52.50;;;;;;6271331;28;19908;-68
2023/03/29 06:04:46;;;;;;;;;;;19.00;52.60;;;;;;6298192;28;20378;-68
2023/03/29 06:07:50;;;;;;;;;;;19.00;52.60;;;;;;6255952;28;19913;-68
2023/03/29 06:10:56;;;;;;;;;;;19.00;52.60;;;;;;6272981;28;19958;-68
2023/03/29 06:13:56;;;;;;;;;;;19.00;52.60;;;;;;6255288;28;19912;-68
2023/03/29 06:16:57;;;;;;;;;;;19.00;52.60;;;;;;6272866;28;20441;-68
2023/03/29 06:19:58;;;;;;;;;;;19.00;52.60;;;;;;6272991;28;19962;-68
2023/03/29 06:22:58;;;;;;;;;;;19.00;52.60;;;;;;6272804;28;20038;-69
2023/03/29 06:25:59;;;;;;;;;;;19.00;52.60;;;;;;6277260;28;19908;-68
2023/03/29 06:29:00;;;;;;;;;;;19.00;52.60;;;;;;6279865;28;19952;-69
2023/03/29 06:32:01;;;;;;;;;;;19.00;52.60;;;;;;6293244;28;19920;-68
2023/03/29 06:35:02;;;;;;;;;;;19.00;52.70;;;;;;6262120;28;19999;-69
2023/03/29 06:38:03;;;;;;;;;;;19.10;52.70;;;;;;6266558;28;19913;-69
2023/03/29 06:41:05;;;;;;;;;;;19.00;52.60;;;;;;6284224;28;20403;-68
2023/03/29 06:44:06;;;;;;;;;;;19.00;52.70;;;;;;6271354;28;19909;-68
2023/03/29 06:47:07;;;;;;;;;;;19.00;52.70;;;;;;6259950;28;19932;-69
2023/03/29 06:50:08;;;;;;;;;;;19.00;52.80;;;;;;6246468;28;19916;-69
2023/03/29 06:53:09;;;;;;;;;;;19.00;52.80;;;;;;6282256;28;19912;-69
2023/03/29 06:56:10;;;;;;;;;;;19.00;52.80;;;;;;6292601;28;19998;-69
2023/03/29 06:59:10;;;;;;;;;;;19.00;52.80;;;;;;6239385;28;19909;-68
2023/03/29 07:02:11;;;;;;;;;;;19.00;52.80;;;;;;6270635;28;20290;-69
2023/03/29 07:05:12;;;;;;;;;;;19.00;52.80;;;;;;6261045;28;20007;-69
2023/03/29 07:08:15;;;;;;;;;;;19.00;52.80;;;;;;6277261;28;19916;-70
2023/03/29 07:11:17;;;;;;;;;;;19.00;52.80;;;;;;6270371;28;19909;-69
2023/03/29 07:14:18;;;;;;;;;;;19.00;52.80;;;;;;6294992;28;19993;-70
2023/03/29 07:17:18;;;;;;;;;;;19.00;52.90;;;;;;6294661;28;20378;-69
2023/03/29 07:20:21;;;;;;;;;;;19.00;52.90;;;;;;6277284;28;19912;-69
2023/03/29 07:23:21;;;;;;;;;;;19.00;52.90;;;;;;6262709;28;19916;-69
2023/03/29 07:26:22;;;;;;;;;;;19.00;52.90;;;;;;6245789;28;19909;-70
2023/03/29 07:29:23;;;;;;;;;;;19.00;52.90;;;;;;6268505;28;19909;-70
2023/03/29 07:32:23;;;;;;;;;;;19.00;52.90;;;;;;6269793;28;19917;-69
2023/03/29 07:35:25;;;;;;;;;;;19.00;53.00;;;;;;6257118;28;19966;-69
2023/03/29 07:38:26;;;;;;;;;;;19.00;52.90;;;;;;6247431;28;19920;-70
2023/03/29 07:41:27;;;;;;;;;;;19.00;52.90;;;;;;6245278;28;19913;-69
2023/03/29 07:44:28;;;;;;;;;;;19.00;52.90;;;;;;6248049;28;20031;-69
2023/03/29 07:47:29;;;;;;;;;;;19.00;52.90;;;;;;6252803;28;19928;-69
2023/03/29 07:50:31;;;;;;;;;;;19.00;53.00;;;;;;6252006;28;19908;-69
2023/03/29 07:53:32;;;;;;;;;;;19.00;52.90;;;;;;6273444;28;19909;-69
2023/03/29 07:56:32;;;;;;;;;;;19.00;53.00;;;;;;6274934;28;19993;-69
2023/03/29 07:59:33;;;;;;;;;;;19.00;52.90;;;;;;6252712;28;19909;-69
2023/03/29 08:02:33;;;;;;;;;;;19.00;52.90;;;;;;6257335;28;19959;-69
2023/03/29 08:05:35;;;;;;;;;;;19.00;53.00;;;;;;6275228;28;20026;-69
2023/03/29 08:08:35;;;;;;;;;;;19.00;53.00;;;;;;6276439;28;20367;-69
2023/03/29 08:11:38;;;;;;;;;;;19.00;52.90;;;;;;6274956;28;19909;-69
2023/03/29 08:14:39;;;;;;;;;;;19.00;53.00;;;;;;6270389;28;19909;-68
2023/03/29 08:17:40;;;;;;;;;;;19.00;53.00;;;;;;6275945;28;19913;-70
2023/03/29 08:20:41;;;;;;;;;;;19.00;53.10;;;;;;6274639;28;19917;-71
2023/03/29 08:23:42;;;;;;;;;;;19.00;52.90;;;;;;6266385;28;20525;-70
2023/03/29 08:26:42;;;;;;;;;;;19.00;52.80;;;;;;6232118;28;19909;-71
2023/03/29 08:29:43;;;;;;;;;;;19.00;52.80;;;;;;6252593;28;19909;-71
2023/03/29 08:32:45;;;;;;;;;;;19.00;52.90;;;;;;6274348;28;19913;-70
2023/03/29 08:35:45;;;;;;;;;;;19.10;53.00;;;;;;6281322;28;19908;-70
2023/03/29 08:38:46;;;;;;;;;;;19.00;52.90;;;;;;6291236;28;19963;-71
2023/03/29 08:41:47;;;;;;;;;;;19.10;53.00;;;;;;6281150;28;19919;-71
2023/03/29 08:45:06;;;;;;;;;;;19.10;52.70;;;;;;6277320;28;19912;-70
2023/03/29 08:48:22;;;;;;;;;;;19.10;52.70;;;;;;6284670;28;19936;-70
2023/03/29 08:51:26;;;;;;;;;;;19.10;52.80;;;;;;6249495;28;20005;-70
2023/03/29 08:54:29;;;;;;;;;;;19.10;52.90;;;;;;6264125;28;19959;-70
2023/03/29 08:57:31;;;;;;;;;;;19.10;53.00;;;;;;6274156;28;19913;-70
2023/03/29 09:00:52;;;;;;;;;;;19.10;53.00;;;;;;6284992;28;20385;-70
2023/03/29 09:04:02;;;;;;;;;;;19.10;53.10;;;;;;6295688;28;19951;-70
2023/03/29 09:07:07;;;;;;;;;;;19.10;53.10;;;;;;6273610;28;20012;-70
2023/03/29 09:10:13;;;;;;;;;;;19.10;53.10;;;;;;6273242;28;19913;-70
2023/03/29 09:13:23;;;;;;;;;;;19.10;53.10;;;;;;6273281;28;20003;-70
2023/03/29 09:16:31;;;;;;;;;;;19.10;53.10;;;;;;6274597;28;19923;-70
2023/03/29 09:19:35;;;;;;;;;;;19.10;53.10;;;;;;6270655;28;20310;-70
2023/03/29 09:22:39;;;;;;;;;;;19.10;53.10;;;;;;6255516;28;19964;-70
2023/03/29 09:25:42;;;;;;;;;;;19.10;53.10;;;;;;6290516;28;19915;-71
2023/03/29 09:28:43;;;;;;;;;;;19.10;53.10;;;;;;6298318;28;19909;-70
2023/03/29 09:31:43;;;;;;;;;;;19.10;53.10;;;;;;6253189;28;19909;-70
2023/03/29 09:34:47;;;;;;;;;;;19.10;53.10;;;;;;6268500;28;20287;-70
2023/03/29 09:37:49;;;;;;;;;;;19.10;53.10;;;;;;6272985;28;20284;-70
2023/03/29 09:40:52;;;;;;;;;;;19.10;53.10;;;;;;6268274;28;19919;-70
2023/03/29 09:43:54;;;;;;;;;;;19.10;53.00;;;;;;6270071;28;19913;-70
2023/03/29 09:47:15;;;;;;;;;;;19.10;52.90;;;;;;6269609;28;20011;-70
2023/03/29 09:50:32;;;;;;;;;;;19.10;53.00;;;;;;6237258;28;19913;-70
2023/03/29 09:53:33;;;;;;;;;;;19.10;53.10;;;;;;6272498;28;19919;-70
2023/03/29 09:56:34;;;;;;;;;;;19.10;53.10;;;;;;6258092;28;20364;-71
2023/03/29 09:59:34;;;;;;;;;;;19.10;53.10;;;;;;6251079;28;19916;-70
2023/03/29 10:02:35;;;;;;;;;;;19.10;53.10;;;;;;6247726;28;19909;-70
2023/03/29 10:05:36;;;;;;;;;;;19.10;53.10;;;;;;6262487;28;19971;-73
2023/03/29 10:08:45;;;;;;;;;;;19.10;53.10;;;;;;6254316;28;19919;-67
2023/03/29 10:11:48;;;;;;;;;;;19.10;53.20;;;;;;6291940;28;19915;-68
2023/03/29 10:14:51;;;;;;;;;;;19.00;52.90;;;;;;6278332;28;19908;-69
2023/03/29 10:17:56;;;;;;;;;;;19.00;52.70;;;;;;6270778;28;20379;-69
2023/03/29 10:20:58;;;;;;;;;;;19.00;51.30;;;;;;6281718;28;19916;-70
2023/03/29 10:23:59;;;;;;;;;;;19.00;50.50;;;;;;6271796;28;19916;-69
2023/03/29 10:27:01;;;;;;;;;;;19.10;51.40;;;;;;6275162;28;19909;-69
2023/03/29 10:30:10;;;;;;;;;;;19.10;51.90;;;;;;6275083;28;19908;-69
2023/03/29 10:33:17;;;;;;;;;;;19.10;52.00;;;;;;6256305;28;19916;-69
2023/03/29 10:36:18;;;;;;;;;;;19.10;52.30;;;;;;6246879;28;19943;-69
2023/03/29 10:39:19;;;;;;;;;;;19.00;52.30;;;;;;6256469;28;19913;-69
2023/03/29 10:42:23;;;;;;;;;;;19.00;52.40;;;;;;6288168;28;19909;-69
2023/03/29 10:45:26;;;;;;;;;;;19.00;52.50;;;;;;6294950;28;19971;-69
2023/03/29 10:48:27;;;;;;;;;;;19.00;52.60;;;;;;6271025;28;20296;-69
2023/03/29 10:51:31;;;;;;;;;;;19.00;52.60;;;;;;6265036;28;19917;-69
2023/03/29 10:54:31;;;;;;;;;;;19.10;52.70;;;;;;6246081;28;20004;-69
2023/03/29 10:57:38;;;;;;;;;;;19.10;52.70;;;;;;6252120;28;20003;-69
2023/03/29 11:00:44;;;;;;;;;;;19.10;52.80;;;;;;6252853;28;19913;-69
2023/03/29 11:03:44;;;;;;;;;;;19.10;52.70;;;;;;6270865;28;19963;-69
2023/03/29 11:06:49;;;;;;;;;;;19.10;52.80;;;;;;6283544;28;19908;-69
2023/03/29 11:10:09;;;;;;;;;;;19.10;52.80;;;;;;6285663;28;20892;-70
2023/03/29 11:13:10;;;;;;;;;;;19.00;52.70;;;;;;6260126;28;19916;-69
2023/03/29 11:16:19;;;;;;;;;;;19.10;52.80;;;;;;6270252;28;19909;-69
2023/03/29 11:19:23;;;;;;;;;;;19.10;52.80;;;;;;6264262;28;20008;-69
2023/03/29 11:22:29;;;;;;;;;;;19.00;52.80;;;;;;6264861;28;19910;-69
2023/03/29 11:25:42;;;;;;;;;;;19.10;52.90;;;;;;6245774;28;20375;-69
2023/03/29 11:28:43;;;;;;;;;;;19.10;52.90;;;;;;6265122;28;19999;-69
2023/03/29 11:31:49;;;;;;;;;;;19.00;52.90;;;;;;6276660;28;19927;-69
2023/03/29 11:34:51;;;;;;;;;;;19.00;52.90;;;;;;6244005;28;19924;-69
2023/03/29 11:38:07;;;;;;;;;;;19.10;52.90;;;;;;6239810;28;19913;-69
2023/03/29 11:41:16;;;;;;;;;;;19.00;52.90;;;;;;6272301;28;19921;-69
2023/03/29 11:44:20;;;;;;;;;;;19.00;53.60;;;;;;6237514;28;20553;-69
2023/03/29 11:47:22;;;;;;;;;;;19.00;52.90;;;;;;6245186;28;19979;-69
2023/03/29 11:50:31;;;;;;;;;;;19.10;53.00;;;;;;6245198;28;20386;-70
2023/03/29 11:53:55;;;;;;;;;;;19.10;53.10;;;;;;6259619;28;19920;-69
2023/03/29 11:57:11;;;;;;;;;;;19.10;53.10;;;;;;6259069;28;20755;-70
2023/03/29 12:00:17;;;;;;;;;;;19.00;53.00;;;;;;6257115;28;19963;-70
2023/03/29 12:03:23;;;;;;;;;;;19.10;53.10;;;;;;6257739;28;19913;-69
2023/03/29 12:06:46;;;;;;;;;;;19.00;53.00;;;;;;6255167;28;19909;-71
2023/03/29 12:09:49;;;;;;;;;;;19.00;53.00;;;;;;6272419;28;19909;-69
2023/03/29 12:12:58;;;;;;;;;;;19.00;53.00;;;;;;6252824;28;19952;-69
2023/03/29 12:16:02;;;;;;;;;;;19.00;52.70;;;;;;6245723;28;20017;-68
2023/03/29 12:19:15;;;;;;;;;;;19.00;52.50;;;;;;6243330;28;20538;-69
2023/03/29 12:22:15;;;;;;;;;;;19.00;52.90;;;;;;6270421;28;19916;-67
2023/03/29 12:25:19;;;;;;;;;;;19.10;53.00;;;;;;6268566;28;19913;-69
2023/03/29 12:28:19;;;;;;;;;;;19.00;52.90;;;;;;6270341;28;19920;-68
2023/03/29 12:31:20;;;;;;;;;;;19.00;52.90;;;;;;6270061;28;19960;-68
2023/03/29 12:34:34;;;;;;;;;;;19.10;53.00;;;;;;6270654;28;19909;-67
2023/03/29 12:37:41;;;;;;;;;;;19.00;52.90;;;;;;6270344;28;19912;-69
2023/03/29 12:40:43;;;;;;;;;;;19.00;52.90;;;;;;6273142;28;20431;-69
2023/03/29 12:43:45;;;;;;;;;;;19.00;52.90;;;;;;6262148;28;20326;-67
2023/03/29 12:46:45;;;;;;;;;;;19.00;52.90;;;;;;6250517;28;19921;-69
2023/03/29 12:49:49;;;;;;;;;;;19.10;53.00;;;;;;6270091;28;20261;-69
2023/03/29 12:52:50;;;;;;;;;;;19.00;52.90;;;;;;6249901;28;19949;-68
2023/03/29 12:55:51;;;;;;;;;;;19.00;52.90;;;;;;6270946;28;19915;-68
2023/03/29 12:58:53;;;;;;;;;;;19.00;52.90;;;;;;6270106;28;20012;-69
2023/03/29 13:02:08;;;;;;;;;;;19.00;52.90;;;;;;6250307;28;19913;-67
2023/03/29 13:05:26;;;;;;;;;;;19.00;52.90;;;;;;6232172;28;19913;-67
2023/03/29 13:08:52;;;;;;;;;;;19.00;53.00;;;;;;6249566;28;20568;-69
2023/03/29 13:11:57;;;;;;;;;;;19.00;52.90;;;;;;6248622;28;19996;-69
2023/03/29 13:15:05;;;;;;;;;;;19.00;52.40;;;;;;6241756;28;19913;-68
2023/03/29 13:18:32;;;;;;;;;;;19.10;52.60;;;;;;6255413;28;19913;-68
2023/03/29 13:21:54;;;;;;;;;;;19.00;52.70;;;;;;6249571;28;19916;-69
2023/03/29 13:24:55;;;;;;;;;;;19.00;52.80;;;;;;6257698;28;19917;-68
2023/03/29 13:28:16;;;;;;;;;;;19.00;52.90;;;;;;6273273;28;19958;-69
2023/03/29 13:31:40;;;;;;;;;;;19.00;52.80;;;;;;6254231;28;19996;-69
2023/03/29 13:34:50;;;;;;;;;;;19.00;52.90;;;;;;6269723;28;19909;-68
2023/03/29 13:38:00;;;;;;;;;;;19.10;52.90;;;;;;6254967;28;19913;-69
2023/03/29 13:41:05;;;;;;;;;;;19.00;52.90;;;;;;6255079;28;19916;-69
2023/03/29 13:44:21;;;;;;;;;;;19.00;52.90;;;;;;6254943;28;19909;-69
2023/03/29 13:47:31;;;;;;;;;;;19.10;53.00;;;;;;6253995;28;19928;-69
2023/03/29 13:50:51;;;;;;;;;;;19.00;52.90;;;;;;6277791;28;20008;-69
2023/03/29 13:54:10;;;;;;;;;;;19.00;52.90;;;;;;6297306;28;19915;-69
2023/03/29 13:57:40;;;;;;;;;;;19.00;52.90;;;;;;6256638;28;19913;-73
2023/03/29 14:00:44;;;;;;;;;;;19.00;52.90;;;;;;6241917;28;20027;-67
2023/03/29 14:03:47;;;;;;;;;;;19.00;52.90;;;;;;6272315;28;19962;-69
2023/03/29 14:06:51;;;;;;;;;;;19.00;52.90;;;;;;6271639;28;20011;-69
2023/03/29 14:09:53;;;;;;;;;;;19.00;52.90;;;;;;6272018;28;19909;-69
2023/03/29 14:12:55;;;;;;;;;;;19.00;53.00;;;;;;6254239;28;20409;-69
2023/03/29 14:16:01;;;;;;;;;;;19.10;53.10;;;;;;6271327;28;20395;-69
2023/03/29 14:19:10;;;;;;;;;;;19.00;53.00;;;;;;6272008;28;20375;-68
2023/03/29 14:22:13;;;;;;;;;;;19.00;53.00;;;;;;6271477;28;19909;-68
2023/03/29 14:25:16;;;;;;;;;;;19.00;53.00;;;;;;6270560;28;20039;-69
2023/03/29 14:28:34;;;;;;;;;;;19.10;53.10;;;;;;6246809;28;19916;-68
2023/03/29 14:31:38;;;;;;;;;;;19.00;53.10;;;;;;6256984;28;20386;-69
2023/03/29 14:34:40;;;;;;;;;;;19.00;53.10;;;;;;6264515;28;19992;-69
2023/03/29 14:37:41;;;;;;;;;;;19.00;53.00;;;;;;6234262;28;19913;-69
2023/03/29 14:40:42;;;;;;;;;;;19.00;53.10;;;;;;6246474;28;19913;-67
2023/03/29 14:43:44;;;;;;;;;;;19.00;53.10;;;;;;6246848;28;19917;-76
2023/03/29 14:46:47;;;;;;;;;;;19.00;53.10;;;;;;6256041;28;19921;-70
2023/03/29 14:49:48;;;;;;;;;;;19.00;53.10;;;;;;6253193;28;19920;-70
2023/03/29 14:52:49;;;;;;;;;;;19.00;53.10;;;;;;6270992;28;19908;-70
2023/03/29 14:55:51;;;;;;;;;;;19.10;53.10;;;;;;6294315;28;20285;-67
2023/03/29 14:58:52;;;;;;;;;;;19.00;53.10;;;;;;6244752;28;19913;-68
2023/03/29 15:01:53;;;;;;;;;;;19.00;53.10;;;;;;6236392;28;19909;-69
2023/03/29 15:05:02;;;;;;;;;;;19.00;53.20;;;;;;6270424;28;20471;-69
2023/03/29 15:08:03;;;;;;;;;;;19.00;53.10;;;;;;6252714;28;20299;-70
2023/03/29 15:11:30;;;;;;;;;;;19.00;53.10;;;;;;6269258;28;19991;-69
2023/03/29 15:14:36;;;;;;;;;;;19.00;53.20;;;;;;6249064;28;19913;-68
2023/03/29 15:17:38;;;;;;;;;;;19.00;53.20;;;;;;6270269;28;19917;-69
2023/03/29 15:20:40;;;;;;;;;;;19.10;53.20;;;;;;6252500;28;19909;-69
2023/03/29 15:23:49;;;;;;;;;;;19.00;53.20;;;;;;6270050;28;20298;-69
2023/03/29 15:27:02;;;;;;;;;;;19.00;53.20;;;;;;6269589;28;19940;-69
2023/03/29 15:30:09;;;;;;;;;;;19.00;53.20;;;;;;6270049;28;20000;-69
2023/03/29 15:33:15;;;;;;;;;;;19.10;53.20;;;;;;6260293;28;19992;-70
2023/03/29 15:36:15;;;;;;;;;;;19.10;53.30;;;;;;6226775;28;19954;-70
2023/03/29 15:39:17;;;;;;;;;;;19.00;53.20;;;;;;6250589;28;19909;-68
2023/03/29 15:42:17;;;;;;;;;;;19.00;53.30;;;;;;6263026;28;20334;-68
2023/03/29 15:45:20;;;;;;;;;;;19.00;53.30;;;;;;6269699;28;19909;-68
2023/03/29 15:48:25;;;;;;;;;;;19.00;53.40;;;;;;6254776;28;19921;-68
2023/03/29 15:51:26;;;;;;;;;;;19.00;53.40;;;;;;6227209;28;20405;-70
2023/03/29 15:54:27;;;;;;;;;;;19.00;53.30;;;;;;6244387;28;19966;-69
2023/03/29 15:57:28;;;;;;;;;;;19.00;53.30;;;;;;6250175;28;19913;-68
2023/03/29 16:00:29;;;;;;;;;;;19.00;53.30;;;;;;6272617;28;20436;-68
2023/03/29 16:03:29;;;;;;;;;;;19.10;53.30;;;;;;6294114;28;19999;-68
2023/03/29 16:06:32;;;;;;;;;;;19.00;53.30;;;;;;6276090;28;20077;-67
2023/03/29 16:09:33;;;;;;;;;;;19.10;53.40;;;;;;6272709;28;19909;-67
2023/03/29 16:12:37;;;;;;;;;;;19.10;53.40;;;;;;6252150;28;20282;-66
2023/03/29 16:15:39;;;;;;;;;;;19.00;53.30;;;;;;6272293;28;19913;-67
2023/03/29 16:18:39;;;;;;;;;;;19.00;53.30;;;;;;6272088;28;20011;-67
2023/03/29 16:21:41;;;;;;;;;;;19.10;53.40;;;;;;6272790;28;19912;-68
2023/03/29 16:24:42;;;;;;;;;;;19.10;53.40;;;;;;6271873;28;19928;-68
2023/03/29 16:27:43;;;;;;;;;;;19.00;53.40;;;;;;6272310;28;20299;-66
2023/03/29 16:30:44;;;;;;;;;;;19.00;53.40;;;;;;6272636;28;19990;-67
2023/03/29 16:33:44;;;;;;;;;;;19.10;53.40;;;;;;6272586;28;19960;-67
2023/03/29 16:36:46;;;;;;;;;;;19.10;53.50;;;;;;6253668;28;19912;-66
2023/03/29 16:39:46;;;;;;;;;;;19.10;53.40;;;;;;6254832;28;20000;-67
2023/03/29 16:42:47;;;;;;;;;;;19.00;53.40;;;;;;6261881;28;19912;-66
2023/03/29 16:45:47;;;;;;;;;;;19.10;53.40;;;;;;6247077;28;20044;-66
2023/03/29 16:48:50;;;;;;;;;;;19.10;53.40;;;;;;6237899;28;19916;-67
2023/03/29 16:51:50;;;;;;;;;;;19.00;53.40;;;;;;6272033;28;19991;-67
2023/03/29 16:54:51;;;;;;;;;;;19.10;53.50;;;;;;6271586;28;20403;-67
2023/03/29 16:57:52;;;;;;;;;;;19.10;53.40;;;;;;6271339;28;19913;-67
2023/03/29 17:00:54;;;;;;;;;;;19.10;53.60;;;;;;6271022;28;19959;-69
2023/03/29 17:03:55;;;;;;;;;;;19.10;53.30;;;;;;6252882;28;19908;-69
2023/03/29 17:06:56;;;;;;;;;;;19.10;53.20;;;;;;6271295;28;19939;-69
2023/03/29 17:09:57;;;;;;;;;;;19.10;53.20;;;;;;6271391;28;20521;-68
2023/03/29 17:12:57;;;;;;;;;;;19.10;53.20;;;;;;6271387;28;19924;-68
2023/03/29 17:15:58;;;;;;;;;;;19.10;53.30;;;;;;6230150;28;19913;-68
2023/03/29 17:18:59;;;;;;;;;;;19.10;53.40;;;;;;6282507;28;19917;-69
2023/03/29 17:21:59;;;;;;;;;;;19.10;53.40;;;;;;6271211;28;19960;-68
2023/03/29 17:25:02;;;;;;;;;;;19.10;53.40;;;;;;6257341;28;19920;-67
2023/03/29 17:28:03;;;;;;;;;;;19.10;53.50;;;;;;6246258;28;20419;-66
2023/03/29 17:31:06;;;;;;;;;;;19.10;53.50;;;;;;6246156;28;19909;-66
2023/03/29 17:34:06;;;;;;;;;;;19.10;53.50;;;;;;6262760;28;20311;-67
2023/03/29 17:37:08;;;;;;;;;;;19.10;53.50;;;;;;6267738;28;19921;-66
2023/03/29 17:40:16;;;;;;;;;;;19.10;53.50;;;;;;6279185;28;20386;-67
2023/03/29 17:43:16;;;;;;;;;;;19.10;53.50;;;;;;6252689;28;20391;-66
2023/03/29 17:46:21;;;;;;;;;;;19.10;53.50;;;;;;6252026;28;19956;-66